Time;durP1;ratioP1;P1;durP2;ratioP2;P2;SDS_P1;SDS_P2;PMS_P1;PMS_P2;Temp;Humidity;BMP_temperature;BMP_pressure;BME280_temperature;BME280_humidity;BME280_pressure;Samples;Min_cycle;Max_cycle;Signal;HPM_P1;HPM_P2
2021/06/05 00:00:00;;;;;;;0.60;0.60;;;;;;;17.14;75.05;96871.06;5116272;28;20419;-73
2021/06/05 00:02:29;;;;;;;1.58;0.80;;;;;;;17.08;75.25;96882.66;5115970;27;20031;-73
2021/06/05 00:04:59;;;;;;;2.25;0.80;;;;;;;16.97;75.27;96889.72;5115929;28;20051;-73
2021/06/05 00:07:26;;;;;;;0.90;0.90;;;;;;;16.93;75.59;96914.31;5116354;28;20043;-73
2021/06/05 00:09:53;;;;;;;0.70;0.70;;;;;;;16.93;76.15;96930.19;5115725;28;20032;-73
2021/06/05 00:12:25;;;;;;;1.05;0.73;;;;;;;16.92;76.66;96910.03;5116041;28;20493;-73
2021/06/05 00:14:52;;;;;;;0.68;0.60;;;;;;;16.94;76.40;96915.88;5115778;28;20027;-74
2021/06/05 00:17:18;;;;;;;1.30;0.93;;;;;;;16.97;76.40;96928.66;5116601;28;20031;-73
2021/06/05 00:19:44;;;;;;;0.68;0.68;;;;;;;16.92;76.26;96929.38;5115807;27;20038;-73
2021/06/05 00:22:11;;;;;;;0.73;0.68;;;;;;;16.90;76.68;96925.38;5115696;28;20042;-74
2021/06/05 00:24:40;;;;;;;0.93;0.60;;;;;;;16.86;76.42;96926.91;5115982;28;20036;-73
2021/06/05 00:27:07;;;;;;;1.52;0.68;;;;;;;16.80;76.64;96924.22;5115490;28;20043;-73
2021/06/05 00:29:33;;;;;;;2.80;0.80;;;;;;;16.77;76.59;96932.59;5115418;28;20043;-73
2021/06/05 00:32:00;;;;;;;0.70;0.70;;;;;;;16.69;76.53;96924.28;5115049;28;20384;-73
2021/06/05 00:34:26;;;;;;;1.23;0.65;;;;;;;16.68;77.10;96920.84;5114458;28;20415;-73
2021/06/05 00:36:53;;;;;;;1.33;0.60;;;;;;;16.65;77.19;96923.97;5116027;28;20515;-73
2021/06/05 00:39:22;;;;;;;2.95;0.68;;;;;;;16.64;77.27;96925.81;5114790;28;20052;-73
2021/06/05 00:41:48;;;;;;;1.10;0.70;;;;;;;16.62;77.50;96924.47;5115176;27;20070;-73
2021/06/05 00:44:15;;;;;;;1.17;0.82;;;;;;;16.59;77.32;96935.56;5115401;27;20043;-73
2021/06/05 00:46:41;;;;;;;0.77;0.77;;;;;;;16.58;77.47;96934.75;5114884;28;20043;-73
2021/06/05 00:49:09;;;;;;;0.82;0.82;;;;;;;16.52;77.40;96922.47;5115145;28;20031;-73
2021/06/05 00:51:42;;;;;;;1.83;0.80;;;;;;;16.47;77.57;96929.56;5115058;27;20031;-73
2021/06/05 00:54:10;;;;;;;1.02;0.80;;;;;;;16.41;77.71;96934.78;5114482;28;20036;-73
2021/06/05 00:56:37;;;;;;;0.70;0.70;;;;;;;16.36;77.64;96925.97;5105891;28;20046;-73
2021/06/05 00:59:03;;;;;;;1.02;0.70;;;;;;;16.36;78.06;96918.81;5115406;28;20113;-74
2021/06/05 01:01:31;;;;;;;0.85;0.70;;;;;;;16.41;78.48;96918.88;5115381;28;20032;-73
2021/06/05 01:03:58;;;;;;;1.48;0.88;;;;;;;16.47;78.51;96919.75;5115262;28;20039;-73
2021/06/05 01:06:37;;;;;;;2.05;0.88;;;;;;;16.48;77.80;96921.34;5114252;28;20051;-73
2021/06/05 01:09:12;;;;;;;0.70;0.57;;;;;;;16.52;78.19;96924.31;5114533;28;20066;-73
2021/06/05 01:12:00;;;;;;;1.10;0.60;;;;;;;16.56;78.15;96925.44;5114808;28;20043;-74
2021/06/05 01:14:33;;;;;;;1.77;0.73;;;;;;;16.54;77.72;96920.38;5114307;28;20042;-73
2021/06/05 01:17:07;;;;;;;2.08;0.80;;;;;;;16.49;77.57;96911.59;5114595;28;20376;-73
2021/06/05 01:19:55;;;;;;;1.13;0.60;;;;;;;16.48;77.54;96910.75;5114421;28;20035;-73
2021/06/05 01:22:33;;;;;;;1.15;0.82;;;;;;;16.50;77.50;96911.31;5114574;28;20034;-73
2021/06/05 01:25:18;;;;;;;0.98;0.77;;;;;;;16.49;77.33;96904.44;5114972;28;20383;-73
2021/06/05 01:28:01;;;;;;;0.90;0.90;;;;;;;16.48;77.30;96904.69;5114169;28;20038;-73
2021/06/05 01:30:34;;;;;;;1.70;0.70;;;;;;;16.49;77.78;96908.94;5106535;28;20032;-73
2021/06/05 01:33:01;;;;;;;0.80;0.63;;;;;;;16.50;77.86;96899.94;5114845;28;20031;-73
2021/06/05 01:35:30;;;;;;;0.60;0.60;;;;;;;16.51;77.59;96902.34;5114536;28;20062;-73
2021/06/05 01:37:57;;;;;;;1.33;0.50;;;;;;;16.54;77.65;96901.06;5114319;28;20043;-73
2021/06/05 01:40:27;;;;;;;0.80;0.80;;;;;;;16.54;77.81;96901.84;5114254;28;20031;-73
2021/06/05 01:42:54;;;;;;;0.70;0.68;;;;;;;16.53;77.76;96904.75;5114309;28;20058;-73
2021/06/05 01:45:26;;;;;;;0.68;0.60;;;;;;;16.52;77.83;96896.00;5114107;28;20035;-74
2021/06/05 01:47:54;;;;;;;0.80;0.80;;;;;;;16.48;77.91;96891.44;5114603;28;20039;-73
2021/06/05 01:50:23;;;;;;;1.23;0.70;;;;;;;16.47;77.79;96895.16;5114345;28;20468;-73
2021/06/05 01:52:52;;;;;;;1.38;0.75;;;;;;;16.47;77.99;96892.50;5113254;28;20411;-73
2021/06/05 01:55:24;;;;;;;1.45;0.82;;;;;;;16.43;78.46;96890.31;5114619;28;20043;-73
2021/06/05 01:57:57;;;;;;;0.95;0.70;;;;;;;16.41;78.45;96894.25;5113442;28;20054;-73
2021/06/05 02:00:31;;;;;;;0.68;0.60;;;;;;;16.39;78.46;96891.06;5114378;28;20040;-73
2021/06/05 02:02:59;;;;;;;0.50;0.50;;;;;;;16.37;78.38;96891.28;5113908;28;20421;-74
2021/06/05 02:05:28;;;;;;;0.55;0.43;;;;;;;16.37;78.61;96893.16;5113347;28;20048;-73
2021/06/05 02:07:55;;;;;;;0.88;0.47;;;;;;;16.38;78.66;96890.28;5113621;28;20046;-73
2021/06/05 02:10:25;;;;;;;0.57;0.57;;;;;;;16.36;78.69;96876.47;5113564;28;20031;-73
2021/06/05 02:12:53;;;;;;;0.75;0.70;;;;;;;16.35;78.66;96877.50;5114106;28;20479;-73
2021/06/05 02:15:37;;;;;;;2.13;0.80;;;;;;;16.36;79.16;96878.31;5113673;28;20043;-73
2021/06/05 02:18:07;;;;;;;1.48;0.70;;;;;;;16.32;78.82;96874.56;5113721;28;20039;-73
2021/06/05 02:20:38;;;;;;;0.70;0.70;;;;;;;16.30;78.84;96866.84;5113860;28;20036;-73
2021/06/05 02:23:09;;;;;;;0.50;0.50;;;;;;;16.30;78.98;96871.34;5113726;28;20039;-73
2021/06/05 02:25:35;;;;;;;0.40;0.40;;;;;;;16.29;79.02;96864.44;5113569;28;20027;-73
2021/06/05 02:28:04;;;;;;;0.75;0.75;;;;;;;16.24;78.94;96858.03;5113456;28;20399;-74
2021/06/05 02:30:31;;;;;;;0.88;0.70;;;;;;;16.23;79.07;96867.03;5114055;28;20459;-73
2021/06/05 02:32:58;;;;;;;0.63;0.63;;;;;;;16.22;79.22;96859.34;5113245;28;20050;-73
2021/06/05 02:35:35;;;;;;;1.00;0.85;;;;;;;16.22;79.41;96859.34;5113771;28;20063;-73
2021/06/05 02:38:02;;;;;;;0.50;0.50;;;;;;;16.18;79.40;96852.91;5100362;28;20471;-73
2021/06/05 02:40:32;;;;;;;0.63;0.63;;;;;;;16.16;79.63;96852.38;5113096;28;20047;-73
2021/06/05 02:43:02;;;;;;;0.73;0.65;;;;;;;16.12;79.85;96852.03;5113325;28;20039;-73
2021/06/05 02:45:53;;;;;;;0.70;0.70;;;;;;;16.10;80.54;96850.69;5105124;28;20040;-73
2021/06/05 02:48:19;;;;;;;2.20;0.70;;;;;;;16.08;80.12;96847.47;5090075;28;20472;-74
2021/06/05 02:50:50;;;;;;;1.17;0.82;;;;;;;16.08;80.20;96845.63;5113543;28;20032;-74
2021/06/05 02:53:17;;;;;;;0.68;0.68;;;;;;;16.07;80.34;96844.03;5101626;28;20036;-73
2021/06/05 02:55:45;;;;;;;0.70;0.68;;;;;;;16.09;80.53;96851.75;5114240;28;20031;-73
2021/06/05 02:58:13;;;;;;;1.77;0.90;;;;;;;16.10;80.65;96845.41;5117409;28;20048;-73
2021/06/05 03:00:45;;;;;;;0.73;0.70;;;;;;;16.08;80.77;96848.28;5117321;28;20036;-73
2021/06/05 03:03:14;;;;;;;0.55;0.55;;;;;;;16.06;80.78;96845.06;5117557;28;20468;-73
2021/06/05 03:05:41;;;;;;;0.68;0.68;;;;;;;16.08;80.91;96840.34;5116868;28;20047;-74
2021/06/05 03:08:10;;;;;;;1.75;0.40;;;;;;;16.10;81.04;96837.47;5116886;28;20051;-73
2021/06/05 03:10:37;;;;;;;0.95;0.80;;;;;;;16.12;81.12;96838.81;5117015;28;20383;-74
2021/06/05 03:13:05;;;;;;;0.50;0.50;;;;;;;16.13;81.14;96840.44;5117640;28;20038;-73
2021/06/05 03:15:32;;;;;;;0.60;0.60;;;;;;;16.15;81.19;96840.19;5116888;28;20050;-74
2021/06/05 03:18:00;;;;;;;0.82;0.70;;;;;;;16.15;81.23;96837.56;5116841;28;20035;-73
2021/06/05 03:20:32;;;;;;;0.50;0.50;;;;;;;16.16;81.32;96833.84;5116683;28;20028;-73
2021/06/05 03:22:59;;;;;;;1.45;0.70;;;;;;;16.15;81.09;96835.69;5117354;28;20035;-73
2021/06/05 03:25:25;;;;;;;1.20;0.70;;;;;;;16.16;81.24;96844.44;5116594;28;20044;-73
2021/06/05 03:27:52;;;;;;;1.38;0.68;;;;;;;16.16;81.18;96845.22;5116856;28;20031;-73
2021/06/05 03:30:20;;;;;;;0.88;0.88;;;;;;;16.16;81.08;96839.13;5116459;28;20028;-73
2021/06/05 03:32:46;;;;;;;0.52;0.52;;;;;;;16.11;80.66;96837.22;5116490;27;20039;-74
2021/06/05 03:35:13;;;;;;;0.73;0.73;;;;;;;16.06;80.60;96839.78;5115901;28;20059;-74
2021/06/05 03:37:41;;;;;;;1.02;0.63;;;;;;;16.02;80.89;96842.13;5117145;28;20484;-73
2021/06/05 03:40:10;;;;;;;0.75;0.70;;;;;;;16.00;80.61;96844.22;5116579;28;20054;-73
2021/06/05 03:42:37;;;;;;;1.23;0.75;;;;;;;15.96;80.59;96832.53;5104966;28;20031;-73
2021/06/05 03:45:08;;;;;;;0.70;0.70;;;;;;;15.92;80.64;96827.97;5116531;28;20046;-73
2021/06/05 03:47:35;;;;;;;0.82;0.80;;;;;;;15.87;80.75;96823.38;5114930;28;20043;-73
2021/06/05 03:50:04;;;;;;;0.70;0.70;;;;;;;15.88;80.81;96825.00;5116487;28;20054;-73
2021/06/05 03:52:30;;;;;;;0.70;0.70;;;;;;;15.90;80.57;96828.19;5117029;28;20080;-73
2021/06/05 03:54:57;;;;;;;0.82;0.77;;;;;;;15.92;80.90;96825.31;5116768;27;20047;-73
2021/06/05 03:57:26;;;;;;;1.27;0.90;;;;;;;15.91;80.60;96827.13;5116096;28;20406;-73
2021/06/05 03:59:55;;;;;;;1.65;0.73;;;;;;;15.90;80.57;96827.41;5116009;28;20459;-74
2021/06/05 04:02:22;;;;;;;0.60;0.50;;;;;;;15.91;80.55;96835.06;5116185;28;20040;-74
2021/06/05 04:04:50;;;;;;;1.30;0.80;;;;;;;15.90;80.60;96824.75;5115996;28;20043;-74
2021/06/05 04:07:18;;;;;;;1.30;0.63;;;;;;;15.88;80.67;96824.19;5116009;28;20043;-74
2021/06/05 04:09:45;;;;;;;0.65;0.65;;;;;;;15.90;80.60;96814.19;5115954;28;20456;-74
2021/06/05 04:12:12;;;;;;;0.88;0.77;;;;;;;15.91;80.57;96816.56;5116008;28;20058;-73
2021/06/05 04:14:40;;;;;;;2.70;0.80;;;;;;;15.94;80.45;96810.81;5116135;28;20047;-73
2021/06/05 04:17:08;;;;;;;0.60;0.60;;;;;;;15.97;80.39;96817.44;5115737;28;20042;-74
2021/06/05 04:19:35;;;;;;;0.75;0.70;;;;;;;15.98;80.42;96809.28;5116126;28;20035;-73
2021/06/05 04:22:03;;;;;;;0.77;0.77;;;;;;;16.00;80.31;96806.38;5115904;28;20032;-74
2021/06/05 04:24:29;;;;;;;0.65;0.60;;;;;;;16.05;80.26;96810.94;5115750;28;20031;-74
2021/06/05 04:26:55;;;;;;;0.65;0.60;;;;;;;16.09;80.02;96810.22;5115650;28;20046;-74
2021/06/05 04:29:21;;;;;;;1.17;0.63;;;;;;;16.14;80.05;96814.75;5115630;28;20032;-74
2021/06/05 04:31:48;;;;;;;0.95;0.70;;;;;;;16.18;79.99;96816.66;5115588;28;20027;-74
2021/06/05 04:34:14;;;;;;;0.50;0.50;;;;;;;16.22;79.83;96822.28;5115080;28;20044;-74
2021/06/05 04:36:40;;;;;;;0.65;0.60;;;;;;;16.25;79.77;96819.13;5114197;28;20058;-74
2021/06/05 04:39:06;;;;;;;0.82;0.60;;;;;;;16.27;79.58;96824.19;5115709;28;20048;-74
2021/06/05 04:41:33;;;;;;;0.75;0.75;;;;;;;16.29;79.41;96825.53;5115269;28;20051;-74
2021/06/05 04:44:00;;;;;;;0.70;0.70;;;;;;;16.31;79.26;96827.94;5115428;28;20036;-74
2021/06/05 04:46:26;;;;;;;0.90;0.80;;;;;;;16.28;79.20;96828.47;5114997;28;20047;-74
2021/06/05 04:48:53;;;;;;;0.50;0.50;;;;;;;16.28;79.16;96823.97;5115319;28;20503;-74
2021/06/05 04:51:22;;;;;;;0.70;0.70;;;;;;;16.27;79.15;96817.03;5115380;28;20048;-74
2021/06/05 04:53:49;;;;;;;3.28;0.70;;;;;;;16.30;79.43;96821.06;5115061;27;20058;-74
2021/06/05 04:56:22;;;;;;;1.17;0.70;;;;;;;16.34;79.51;96832.78;5105701;28;20042;-74
2021/06/05 04:58:48;;;;;;;0.70;0.55;;;;;;;16.38;79.45;96825.94;5104889;28;20403;-74
2021/06/05 05:01:14;;;;;;;0.50;0.50;;;;;;;16.44;79.57;96828.41;5115544;28;20058;-74
2021/06/05 05:03:41;;;;;;;0.90;0.60;;;;;;;16.48;79.68;96819.97;5115294;28;20035;-74
2021/06/05 05:06:07;;;;;;;0.60;0.60;;;;;;;16.50;79.32;96825.81;5114989;28;20039;-74
2021/06/05 05:08:33;;;;;;;0.70;0.70;;;;;;;16.47;79.24;96827.09;5114652;28;20046;-74
2021/06/05 05:11:00;;;;;;;2.00;0.68;;;;;;;16.45;79.18;96837.16;5115034;28;20039;-74
2021/06/05 05:13:30;;;;;;;0.68;0.68;;;;;;;16.41;79.27;96836.81;5114475;28;20044;-74
2021/06/05 05:15:57;;;;;;;1.10;0.80;;;;;;;16.43;79.29;96850.63;5114733;28;20467;-74
2021/06/05 05:18:25;;;;;;;0.80;0.63;;;;;;;16.43;79.49;96847.97;5113173;28;20040;-74
2021/06/05 05:20:52;;;;;;;1.05;0.82;;;;;;;16.45;79.38;96845.09;5114786;28;20040;-74
2021/06/05 05:23:20;;;;;;;1.27;1.02;;;;;;;16.44;79.35;96849.59;5114555;28;20039;-74
2021/06/05 05:25:47;;;;;;;0.60;0.60;;;;;;;16.48;79.26;96859.66;5114525;28;20047;-74
2021/06/05 05:28:16;;;;;;;1.25;0.70;;;;;;;16.51;79.44;96861.84;5114933;28;20039;-74
2021/06/05 05:30:47;;;;;;;0.85;0.75;;;;;;;16.53;79.13;96859.75;5114252;28;20430;-74
2021/06/05 05:33:14;;;;;;;0.60;0.60;;;;;;;16.49;78.91;96851.50;5114463;28;20035;-74
2021/06/05 05:35:41;;;;;;;1.23;0.88;;;;;;;16.48;79.00;96857.81;5113928;28;20059;-74
2021/06/05 05:38:09;;;;;;;0.70;0.60;;;;;;;16.50;79.06;96863.66;5113781;28;20055;-74
2021/06/05 05:40:37;;;;;;;2.10;0.93;;;;;;;16.56;79.20;96864.53;5114375;28;20050;-74
2021/06/05 05:43:04;;;;;;;0.93;0.60;;;;;;;16.56;78.79;96861.91;5113981;28;20058;-74
2021/06/05 05:45:30;;;;;;;0.70;0.70;;;;;;;16.57;78.63;96863.50;5114461;28;20040;-74
2021/06/05 05:47:58;;;;;;;0.55;0.55;;;;;;;16.59;78.67;96867.50;5114025;28;20031;-74
2021/06/05 05:50:25;;;;;;;2.50;0.73;;;;;;;16.63;78.67;96868.63;5113960;28;20032;-74
2021/06/05 05:52:51;;;;;;;0.85;0.80;;;;;;;16.67;78.58;96870.75;5101799;28;20365;-74
2021/06/05 05:55:17;;;;;;;1.02;0.60;;;;;;;16.73;78.70;96880.38;5113423;28;20047;-74
2021/06/05 05:57:46;;;;;;;0.80;0.80;;;;;;;16.76;78.51;96870.09;5113949;28;20044;-74
2021/06/05 06:00:19;;;;;;;0.70;0.70;;;;;;;16.77;78.31;96866.38;5113877;28;20036;-74
2021/06/05 06:02:46;;;;;;;0.60;0.60;;;;;;;16.80;78.13;96867.75;5113832;28;20043;-74
2021/06/05 06:05:12;;;;;;;1.17;0.68;;;;;;;16.82;78.11;96878.94;5113783;28;20386;-74
2021/06/05 06:07:39;;;;;;;1.33;0.80;;;;;;;16.87;78.31;96876.34;5113792;28;20043;-74
2021/06/05 06:10:08;;;;;;;0.70;0.65;;;;;;;16.93;78.20;96877.22;5114128;28;20043;-74
2021/06/05 06:12:35;;;;;;;1.90;0.95;;;;;;;16.98;77.99;96879.91;5113778;28;20040;-74
2021/06/05 06:15:09;;;;;;;0.80;0.70;;;;;;;17.00;78.16;96877.81;5113766;28;20042;-74
2021/06/05 06:17:37;;;;;;;0.77;0.70;;;;;;;17.01;77.87;96877.56;5113268;28;20067;-74
2021/06/05 06:20:05;;;;;;;1.77;0.80;;;;;;;17.03;77.68;96885.28;5114013;28;20050;-74
2021/06/05 06:22:31;;;;;;;1.73;0.80;;;;;;;17.01;77.58;96890.03;5113843;28;20472;-74
2021/06/05 06:24:58;;;;;;;6.85;1.42;;;;;;;17.05;77.66;96893.78;5113721;28;20043;-73
2021/06/05 06:27:31;;;;;;;0.88;0.80;;;;;;;17.12;77.81;96889.06;5113121;28;20047;-73
2021/06/05 06:29:57;;;;;;;1.10;1.00;;;;;;;17.19;78.02;96889.66;5113103;28;20495;-73
2021/06/05 06:32:24;;;;;;;1.58;0.75;;;;;;;17.28;77.90;96886.56;5117905;28;20038;-74
2021/06/05 06:34:51;;;;;;;2.90;1.20;;;;;;;17.33;77.60;96890.09;5117583;28;20052;-73
2021/06/05 06:37:17;;;;;;;2.90;0.93;;;;;;;17.36;77.47;96896.75;5117567;28;20051;-73
2021/06/05 06:39:44;;;;;;;1.30;0.90;;;;;;;17.40;77.74;96892.53;5116412;28;20496;-73
2021/06/05 06:42:10;;;;;;;0.55;0.55;;;;;;;17.43;77.57;96892.06;5117773;28;20035;-73
2021/06/05 06:44:36;;;;;;;1.08;0.98;;;;;;;17.48;77.41;96894.75;5117906;28;20047;-73
2021/06/05 06:47:06;;;;;;;0.90;0.90;;;;;;;17.52;77.46;96889.75;5117758;28;20046;-73
2021/06/05 06:49:32;;;;;;;1.40;0.90;;;;;;;17.48;76.98;96900.03;5117628;28;20062;-73
2021/06/05 06:51:59;;;;;;;1.10;1.00;;;;;;;17.42;77.12;96901.84;5117121;28;20044;-73
2021/06/05 06:54:25;;;;;;;0.77;0.70;;;;;;;17.36;77.10;96907.34;5117453;28;20046;-73
2021/06/05 06:56:51;;;;;;;1.00;0.90;;;;;;;17.28;77.22;96903.28;5117259;28;20035;-74
2021/06/05 06:59:17;;;;;;;0.77;0.77;;;;;;;17.27;77.75;96906.19;5117923;28;20032;-74
2021/06/05 07:01:44;;;;;;;1.98;0.93;;;;;;;17.31;78.06;96902.00;5117746;28;20491;-73
2021/06/05 07:04:10;;;;;;;0.88;0.88;;;;;;;17.38;78.04;96902.59;5117358;28;20476;-73
2021/06/05 07:06:37;;;;;;;0.77;0.77;;;;;;;17.48;77.78;96912.50;5117029;28;20475;-73
2021/06/05 07:09:05;;;;;;;1.35;0.68;;;;;;;17.42;77.52;96904.50;5117352;28;20054;-74
2021/06/05 07:11:34;;;;;;;1.23;0.73;;;;;;;17.41;77.67;96905.56;5106764;28;20048;-73
2021/06/05 07:14:03;;;;;;;0.90;0.90;;;;;;;17.39;77.72;96920.13;5117097;28;20110;-73
2021/06/05 07:16:31;;;;;;;0.60;0.60;;;;;;;17.39;77.91;96918.25;5116410;27;20036;-72
2021/06/05 07:18:57;;;;;;;1.02;0.98;;;;;;;17.35;78.02;96921.66;5117020;28;20039;-73
2021/06/05 07:21:25;;;;;;;1.20;1.10;;;;;;;17.32;78.19;96922.16;5116881;28;20069;-73
2021/06/05 07:23:52;;;;;;;1.67;1.13;;;;;;;17.28;78.54;96929.00;5116919;28;20028;-72
2021/06/05 07:26:23;;;;;;;2.20;0.80;;;;;;;17.30;79.02;96940.94;5115365;28;20043;-73
2021/06/05 07:28:54;;;;;;;1.48;1.10;;;;;;;17.32;79.14;96938.06;5117503;28;20477;-73
2021/06/05 07:31:25;;;;;;;1.30;1.20;;;;;;;17.34;79.27;96946.56;5117170;28;20490;-73
2021/06/05 07:33:51;;;;;;;1.10;0.98;;;;;;;17.32;78.89;96946.78;5116633;28;20460;-73
2021/06/05 07:36:26;;;;;;;1.05;0.82;;;;;;;17.27;79.10;96944.09;5116426;28;20052;-73
2021/06/05 07:38:53;;;;;;;1.92;1.00;;;;;;;17.22;78.99;96952.00;5104115;28;20044;-73
2021/06/05 07:41:19;;;;;;;3.22;1.17;;;;;;;17.21;79.21;96959.13;5116322;28;20036;-73
2021/06/05 07:43:46;;;;;;;2.85;1.10;;;;;;;17.19;79.31;96953.28;5116680;28;20043;-73
2021/06/05 07:46:12;;;;;;;0.90;0.85;;;;;;;17.17;79.30;96950.06;5116508;28;20036;-73
2021/06/05 07:48:39;;;;;;;0.80;0.80;;;;;;;17.16;79.37;96953.78;5116524;28;20073;-73
2021/06/05 07:51:08;;;;;;;0.82;0.82;;;;;;;17.15;79.58;96952.16;5116325;28;20027;-73
2021/06/05 07:53:35;;;;;;;0.90;0.90;;;;;;;17.22;79.84;96949.34;5115627;28;20031;-73
2021/06/05 07:56:03;;;;;;;2.33;0.90;;;;;;;17.29;79.60;96947.31;5115510;28;20042;-73
2021/06/05 07:58:29;;;;;;;0.85;0.85;;;;;;;17.32;79.43;96954.75;5116413;28;20035;-73
2021/06/05 08:00:55;;;;;;;3.03;1.40;;;;;;;17.33;79.06;96955.56;5116344;27;20028;-73
2021/06/05 08:03:22;;;;;;;1.48;0.60;;;;;;;17.35;79.24;96953.47;5115910;28;20047;-73
2021/06/05 08:05:48;;;;;;;1.23;0.80;;;;;;;17.42;79.40;96949.56;5115818;28;20391;-73
2021/06/05 08:08:15;;;;;;;1.15;0.90;;;;;;;17.51;78.99;96943.81;5114811;28;20042;-73
2021/06/05 08:10:51;;;;;;;3.92;1.20;;;;;;;17.51;78.48;96941.16;5116087;27;20027;-74
2021/06/05 08:13:18;;;;;;;0.95;0.95;;;;;;;17.54;78.80;96954.72;5104469;28;20031;-73
2021/06/05 08:15:47;;;;;;;0.98;0.80;;;;;;;17.64;78.79;96956.69;5115745;28;20035;-73
2021/06/05 08:18:14;;;;;;;1.00;1.00;;;;;;;17.73;78.40;96947.22;5114459;28;20391;-74
2021/06/05 08:20:50;;;;;;;0.80;0.80;;;;;;;17.74;77.21;96948.00;5116495;27;20040;-73
2021/06/05 08:23:19;;;;;;;0.80;0.80;;;;;;;17.79;77.68;96951.53;5115733;28;20387;-73
2021/06/05 08:25:48;;;;;;;1.05;0.90;;;;;;;17.90;78.02;96947.13;5115578;28;20043;-73
2021/06/05 08:28:17;;;;;;;2.55;1.00;;;;;;;18.05;77.65;96949.13;5114881;28;20051;-74
2021/06/05 08:30:46;;;;;;;0.60;0.60;;;;;;;18.08;76.86;96953.94;5115702;28;20270;-73
2021/06/05 08:33:14;;;;;;;1.75;1.00;;;;;;;18.16;76.84;96944.69;5115807;28;20032;-73
2021/06/05 08:35:41;;;;;;;0.88;0.88;;;;;;;18.29;76.59;96944.28;5115169;28;20056;-73
2021/06/05 08:38:09;;;;;;;1.02;0.90;;;;;;;18.44;76.24;96949.69;5115507;28;20054;-74
2021/06/05 08:40:48;;;;;;;0.80;0.80;;;;;;;18.59;75.25;96943.66;5115501;28;20027;-74
2021/06/05 08:43:24;;;;;;;1.50;0.80;;;;;;;18.78;75.52;96943.22;5115117;28;20040;-74
2021/06/05 08:45:51;;;;;;;0.73;0.70;;;;;;;18.92;75.03;96946.25;5104936;28;20367;-73
2021/06/05 08:48:20;;;;;;;0.93;0.80;;;;;;;18.97;74.33;96940.97;5114941;28;20040;-74
2021/06/05 08:50:46;;;;;;;0.85;0.80;;;;;;;19.01;74.43;96939.38;5114644;28;20035;-74
2021/06/05 08:53:23;;;;;;;1.00;0.65;;;;;;;19.09;74.21;96938.06;5113615;28;20043;-74
2021/06/05 08:56:20;;;;;;;0.88;0.80;;;;;;;19.16;72.62;96939.44;5114932;28;20042;-73
2021/06/05 08:58:51;;;;;;;1.13;0.65;;;;;;;19.15;73.52;96942.34;5115214;28;20383;-73
2021/06/05 09:01:27;;;;;;;0.77;0.77;;;;;;;19.12;72.92;96940.22;5115496;28;20031;-73
2021/06/05 09:04:01;;;;;;;1.48;0.90;;;;;;;19.00;73.12;96940.44;5115019;28;20048;-73
2021/06/05 09:06:30;;;;;;;1.67;0.80;;;;;;;18.88;73.46;96942.50;5115600;28;20050;-73
2021/06/05 09:08:56;;;;;;;0.88;0.75;;;;;;;18.83;73.64;96948.59;5114641;28;20109;-73
2021/06/05 09:11:22;;;;;;;0.75;0.73;;;;;;;18.86;73.99;96950.75;5115126;28;20464;-74
2021/06/05 09:13:49;;;;;;;1.65;0.60;;;;;;;18.90;73.87;96949.19;5104330;28;20495;-73
2021/06/05 09:16:22;;;;;;;0.82;0.82;;;;;;;18.89;73.04;96949.44;5114668;28;20036;-73
2021/06/05 09:19:01;;;;;;;0.70;0.70;;;;;;;18.85;73.22;96946.47;5114517;28;20475;-73
2021/06/05 09:21:29;;;;;;;0.70;0.70;;;;;;;18.86;73.96;96946.22;5114630;28;20035;-73
2021/06/05 09:24:26;;;;;;;1.83;0.70;;;;;;;18.89;74.49;96946.78;5114612;27;20032;-73
2021/06/05 09:27:17;;;;;;;1.23;0.75;;;;;;;18.89;73.07;96947.56;5097148;28;20036;-73
2021/06/05 09:29:48;;;;;;;0.73;0.70;;;;;;;18.84;73.51;96956.31;5114733;28;20085;-73
2021/06/05 09:32:31;;;;;;;1.75;0.80;;;;;;;18.80;73.87;96949.13;5114910;28;20391;-72
2021/06/05 09:35:21;;;;;;;0.70;0.70;;;;;;;18.73;73.84;96954.66;5105068;28;20048;-73
2021/06/05 09:38:16;;;;;;;0.73;0.60;;;;;;;18.77;75.61;96960.22;5108182;28;20038;-73
2021/06/05 09:40:58;;;;;;;1.13;0.80;;;;;;;18.73;74.38;96961.78;5114237;27;20050;-73
2021/06/05 09:43:26;;;;;;;1.45;0.80;;;;;;;18.72;74.37;96954.88;5114257;28;20039;-72
2021/06/05 09:46:32;;;;;;;1.10;0.75;;;;;;;18.71;74.51;96954.09;5114229;28;20055;-72
2021/06/05 09:49:18;;;;;;;;;;;;;;;18.63;75.77;96955.38;5061412;28;20049;-73
2021/06/05 09:52:00;;;;;;;1.38;1.10;;;;;;;18.62;76.22;96955.63;5066033;28;20312;-73
2021/06/05 09:54:32;;;;;;;0.75;0.75;;;;;;;18.68;76.36;96962.56;5096150;28;20051;-73
2021/06/05 09:57:13;;;;;;;0.95;0.90;;;;;;;18.76;77.61;96955.97;5114270;28;20035;-73
2021/06/05 09:59:39;;;;;;;0.90;0.90;;;;;;;18.84;75.83;96953.66;5114071;28;20032;-73
2021/06/05 10:02:16;;;;;;;1.08;0.95;;;;;;;18.93;76.26;96955.81;5113968;28;20036;-73
2021/06/05 10:04:43;;;;;;;0.60;0.60;;;;;;;18.97;75.94;96952.38;5114163;28;20035;-73
2021/06/05 10:07:26;;;;;;;0.90;0.75;;;;;;;19.02;76.85;96957.75;5113770;28;20471;-73
2021/06/05 10:09:59;;;;;;;0.73;0.70;;;;;;;19.09;76.30;96957.50;5113856;28;20404;-73
2021/06/05 10:12:28;;;;;;;0.68;0.68;;;;;;;19.17;76.10;96957.00;5114028;28;20035;-75
2021/06/05 10:15:06;;;;;;;0.90;0.90;;;;;;;19.24;76.53;96951.44;5113500;28;20048;-73
2021/06/05 10:17:43;;;;;;;0.90;0.90;;;;;;;19.37;76.23;96955.47;5114155;28;20490;-73
2021/06/05 10:20:23;;;;;;;1.30;1.00;;;;;;;19.48;75.77;96951.75;5113609;28;20027;-73
2021/06/05 10:22:54;;;;;;;1.42;1.02;;;;;;;19.61;75.66;96956.59;5113858;28;20039;-73
2021/06/05 10:25:31;;;;;;;1.10;1.02;;;;;;;19.67;74.70;96952.06;5113533;28;20050;-73
2021/06/05 10:28:04;;;;;;;1.10;0.95;;;;;;;19.69;74.63;96952.59;5114051;28;20028;-73
2021/06/05 10:30:42;;;;;;;0.95;0.95;;;;;;;19.70;74.90;96948.06;5113930;28;20036;-73
2021/06/05 10:33:17;;;;;;;2.13;1.15;;;;;;;19.66;74.17;96958.47;5113475;28;20031;-73
2021/06/05 10:35:44;;;;;;;1.85;0.80;;;;;;;19.62;74.74;96952.88;5113497;28;20059;-73
2021/06/05 10:38:19;;;;;;;0.70;0.70;;;;;;;19.58;74.16;96951.78;5113387;28;20047;-73
2021/06/05 10:40:51;;;;;;;0.90;0.85;;;;;;;19.42;74.23;96950.97;5113124;28;20056;-73
2021/06/05 10:43:17;;;;;;;1.77;0.90;;;;;;;19.38;75.13;96946.41;5113741;28;20389;-73
2021/06/05 10:45:47;;;;;;;0.80;0.80;;;;;;;19.37;75.05;96942.97;5113477;28;20050;-73
2021/06/05 10:48:22;;;;;;;0.85;0.82;;;;;;;19.37;75.37;96956.25;5112736;28;20039;-72
2021/06/05 10:51:17;;;;;;;0.80;0.68;;;;;;;19.29;74.89;96950.66;5113470;28;20043;-73
2021/06/05 10:53:43;;;;;;;0.47;0.47;;;;;;;19.27;75.18;96945.59;5111567;28;20403;-73
2021/06/05 10:56:11;;;;;;;0.47;0.47;;;;;;;19.29;75.21;96943.47;5113122;28;20054;-73
2021/06/05 10:58:46;;;;;;;0.60;0.60;;;;;;;19.30;74.53;96941.59;5112971;28;20384;-73
2021/06/05 11:01:38;;;;;;;1.42;0.77;;;;;;;19.26;76.39;96951.97;5113229;28;20039;-73
2021/06/05 11:04:07;;;;;;;0.98;0.50;;;;;;;19.21;74.34;96943.97;5113203;28;20027;-73
2021/06/05 11:07:02;;;;;;;0.68;0.60;;;;;;;19.14;73.81;96938.91;5112631;28;20054;-73
2021/06/05 11:09:31;;;;;;;0.38;0.38;;;;;;;19.20;74.70;96937.84;5099917;28;20456;-73
2021/06/05 11:12:03;;;;;;;0.95;0.50;;;;;;;19.35;74.67;96933.66;5113384;28;20411;-73
2021/06/05 11:14:36;;;;;;;0.70;0.70;;;;;;;19.41;73.54;96936.06;5112791;28;20476;-73
2021/06/05 11:17:23;;;;;;;0.40;0.40;;;;;;;19.45;73.61;96929.16;5114530;28;20032;-73
2021/06/05 11:19:53;;;;;;;0.28;0.28;;;;;;;19.55;73.51;96940.88;5117437;28;20031;-73
2021/06/05 11:22:23;;;;;;;0.30;0.30;;;;;;;19.55;73.36;96941.69;5116943;27;20031;-73
2021/06/05 11:25:08;;;;;;;0.30;0.30;;;;;;;19.56;72.52;96937.94;5116882;28;20043;-74
2021/06/05 11:27:37;;;;;;;0.57;0.43;;;;;;;19.49;73.05;96940.06;5117027;27;20040;-73
2021/06/05 11:30:21;;;;;;;0.55;0.32;;;;;;;19.46;72.17;96927.28;5116669;28;20042;-74
2021/06/05 11:33:00;;;;;;;0.38;0.35;;;;;;;19.56;72.52;96929.97;5117428;27;20040;-73
2021/06/05 11:35:42;;;;;;;0.40;0.28;;;;;;;19.74;72.26;96928.72;5116764;28;20054;-73
2021/06/05 11:38:17;;;;;;;0.20;0.20;;;;;;;19.91;71.37;96928.44;5116723;28;20035;-73
2021/06/05 11:40:49;;;;;;;0.43;0.43;;;;;;;20.06;71.76;96925.00;5107491;28;20052;-74
2021/06/05 11:43:29;;;;;;;1.08;0.40;;;;;;;20.19;71.07;96918.31;5117215;28;20391;-74
2021/06/05 11:46:05;;;;;;;0.30;0.30;;;;;;;20.29;69.64;96912.97;5116025;28;20506;-73
2021/06/05 11:48:37;;;;;;;0.38;0.30;;;;;;;20.21;68.00;96916.97;5115853;28;20043;-74